Time;durP1;ratioP1;P1;durP2;ratioP2;P2;SDS_P1;SDS_P2;PMS_P1;PMS_P2;Temp;Humidity;BMP_temperature;BMP_pressure;BME280_temperature;BME280_humidity;BME280_pressure;Samples;Min_cycle;Max_cycle;Signal;HPM_P1;HPM_P2
2022/03/26 05:58:44;;;;;;;24.42;11.48;;;;;;;7.35;58.99;101492.06;5919129;27;20130;-88
2022/03/26 06:01:48;;;;;;;16.58;10.40;;;;;;;7.63;57.86;101487.87;5428245;27;34954;-89
2022/03/26 06:04:51;;;;;;;18.17;10.07;;;;;;;7.90;56.18;101490.03;5427102;27;33655;-89
2022/03/26 06:07:53;;;;;;;17.00;10.25;;;;;;;8.06;55.33;101491.34;5447823;27;34001;-90
2022/03/26 06:10:56;;;;;;;25.23;10.45;;;;;;;8.15;55.27;101495.91;5382020;33;34130;-87
2022/03/26 06:14:00;;;;;;;18.60;10.18;;;;;;;8.39;54.58;101492.91;5392040;33;33672;-88
2022/03/26 06:17:03;;;;;;;22.10;11.12;;;;;;;8.55;53.86;101495.09;5439595;27;34017;-88
2022/03/26 06:20:08;;;;;;;18.08;10.50;;;;;;;8.66;53.67;101491.44;5428002;27;34479;-87
2022/03/26 06:23:11;;;;;;;17.75;9.60;;;;;;;8.79;53.51;101490.19;5427513;27;33550;-88
2022/03/26 06:26:14;;;;;;;22.02;10.07;;;;;;;9.03;52.88;101494.31;5383651;33;34161;-88
2022/03/26 06:29:17;;;;;;;21.10;10.77;;;;;;;9.23;52.16;101490.66;5385911;33;34317;-88
2022/03/26 06:32:20;;;;;;;23.02;10.00;;;;;;;9.38;51.41;101490.22;5375723;33;33826;-88
2022/03/26 06:35:24;;;;;;;21.45;10.43;;;;;;;9.60;51.72;101494.47;5382160;33;33937;-87
2022/03/26 06:38:31;;;;;;;25.90;11.40;;;;;;;9.92;50.28;101489.56;5394821;27;34538;-88
2022/03/26 06:41:44;;;;;;;21.45;11.30;;;;;;;10.15;49.72;101492.75;5383344;33;34074;-87
2022/03/26 06:44:46;;;;;;;22.17;12.25;;;;;;;10.20;49.55;101492.28;5395103;27;34900;-89
2022/03/26 06:51:53;;;;;;;18.80;11.63;;;;;;;10.30;49.06;101490.44;5384825;27;20096;-89
2022/03/26 06:54:56;;;;;;;22.33;12.48;;;;;;;10.54;48.44;101506.06;5382413;33;34306;-87
2022/03/26 06:57:59;;;;;;;22.02;13.62;;;;;;;10.83;48.04;101503.19;5384580;33;34651;-87
2022/03/26 07:01:03;;;;;;;27.48;14.02;;;;;;;10.96;47.18;101505.50;5423640;27;34220;-88
2022/03/26 07:04:06;;;;;;;25.73;13.18;;;;;;;11.02;47.71;101504.87;5389435;32;33694;-88
2022/03/26 07:07:12;;;;;;;24.87;12.25;;;;;;;11.22;45.78;101508.28;5435084;27;34128;-87
2022/03/26 07:10:15;;;;;;;25.05;13.60;;;;;;;11.62;44.68;101506.09;5395275;32;33612;-87
2022/03/26 07:13:18;;;;;;;24.87;14.13;;;;;;;11.77;44.63;101512.63;5392728;33;34663;-87
2022/03/26 07:16:21;;;;;;;26.73;14.87;;;;;;;12.14;43.96;101500.72;5395152;33;33663;-87
2022/03/26 07:19:24;;;;;;;23.67;14.63;;;;;;;12.41;43.12;101510.50;5397431;33;35622;-87
2022/03/26 07:22:27;;;;;;;25.70;14.80;;;;;;;12.82;42.33;101508.78;5394851;33;32974;-87
2022/03/26 07:25:30;;;;;;;25.77;13.05;;;;;;;13.07;41.33;101511.53;5404192;33;34271;-87
2022/03/26 07:28:33;;;;;;;25.37;13.52;;;;;;;12.82;41.68;101508.78;5397512;33;34283;-87
2022/03/26 07:31:36;;;;;;;56.63;15.95;;;;;;;13.00;41.44;101510.50;5393568;32;34613;-87
2022/03/26 07:34:39;;;;;;;32.22;14.77;;;;;;;13.07;41.85;101504.25;5389346;33;34762;-87
2022/03/26 07:37:43;;;;;;;27.45;13.90;;;;;;;13.03;42.02;101508.31;5388234;33;33731;-87
2022/03/26 07:40:49;;;;;;;29.45;15.20;;;;;;;13.27;40.92;101507.53;5390618;33;34887;-88
2022/03/26 07:43:52;;;;;;;28.83;15.45;;;;;;;13.38;40.26;101504.50;5381057;33;33985;-87
2022/03/26 07:46:55;;;;;;;27.62;14.98;;;;;;;13.24;40.43;101510.53;5381127;33;34417;-88
2022/03/26 07:49:58;;;;;;;27.75;16.08;;;;;;;13.10;40.69;101512.06;5379369;33;33776;-87
2022/03/26 07:53:01;;;;;;;27.27;14.95;;;;;;;13.18;41.25;101508.50;5373094;33;33892;-88
2022/03/26 07:56:04;;;;;;;26.67;16.37;;;;;;;13.46;40.42;101506.38;5377675;33;33917;-88
2022/03/26 07:59:07;;;;;;;28.33;15.98;;;;;;;13.64;40.22;101498.06;5391982;32;33598;-88
2022/03/26 08:02:10;;;;;;;25.25;14.40;;;;;;;13.71;39.35;101492.81;5370313;33;34246;-88
2022/03/26 08:05:13;;;;;;;24.60;15.10;;;;;;;13.96;38.67;101486.34;5399448;27;34028;-88
2022/03/26 08:08:16;;;;;;;24.55;16.00;;;;;;;14.14;38.21;101494.25;5370328;33;34234;-89
2022/03/26 08:11:20;;;;;;;27.48;14.95;;;;;;;14.37;38.13;101488.09;5373773;33;33998;-88
2022/03/26 08:14:22;;;;;;;28.90;16.10;;;;;;;14.43;37.54;101487.37;5369133;33;35286;-90
2022/03/26 08:17:29;;;;;;;23.92;13.45;;;;;;;14.77;36.85;101484.37;5375767;33;35262;-89
2022/03/26 08:20:32;;;;;;;24.08;14.02;;;;;;;14.83;35.30;101485.50;5402243;33;35203;-90
2022/03/26 08:23:35;;;;;;;25.33;14.87;;;;;;;14.73;35.16;101481.16;5400662;33;33803;-88
2022/03/26 08:26:49;;;;;;;21.58;13.80;;;;;;;14.89;35.34;101487.53;5433985;27;34214;-88
2022/03/26 08:29:52;;;;;;;25.83;15.70;;;;;;;15.02;35.20;101479.62;5385280;33;34138;-88
2022/03/26 08:32:55;;;;;;;27.75;14.85;;;;;;;15.23;34.90;101489.81;5380051;33;35520;-88
2022/03/26 08:35:58;;;;;;;26.10;13.90;;;;;;;15.36;35.05;101484.63;5376084;33;33829;-87
2022/03/26 08:39:01;;;;;;;23.52;14.20;;;;;;;15.42;34.65;101483.06;5377216;33;33672;-88
2022/03/26 08:42:05;;;;;;;29.08;14.80;;;;;;;15.11;34.91;101491.25;5372528;33;35388;-88
2022/03/26 08:45:08;;;;;;;23.00;13.60;;;;;;;15.39;35.48;101486.12;5366963;33;33736;-88
2022/03/26 08:48:12;;;;;;;21.83;13.23;;;;;;;15.45;34.83;101496.25;5373031;33;34140;-89
2022/03/26 08:51:15;;;;;;;29.17;15.25;;;;;;;15.54;34.68;101492.44;5366093;33;190667;-88
2022/03/26 08:54:18;;;;;;;26.05;14.05;;;;;;;15.89;35.31;101492.84;5390967;27;33767;-88
2022/03/26 08:57:22;;;;;;;24.50;13.73;;;;;;;16.06;35.08;101494.34;5439241;27;34015;-89
2022/03/26 09:00:26;;;;;;;29.05;13.93;;;;;;;16.31;34.62;101489.47;5380879;33;34076;-89
